This demonstration page uses our WeatherBlox Daily Observations layout. Learn more.

Hourly Observations for August 21, 2016

Temp ( °F °C ) Dew Point ( °F °C ) Humidity (%) Winds ( mph kmh ) Pressure ( in mb ) Visibility ( mi km ) Precip ( " mm )
12:54 am 00:54 Clear 58 14.4 53 11.7 84 84 Calm 29.99 1016 10 16.0934 0 0
1:54 am 01:54 Clear 55 12.8 52 11.1 90 90 N 6 9 29.99 1016 10 16.0934 0 0
2:54 am 02:54 Clear 55 12.8 52 11.1 90 90 Calm 30 1016 10 16.0934 0 0
3:54 am 03:54 Clear 55 12.8 52 11.1 90 90 Calm 30.01 1016 10 16.0934 0 0
4:54 am 04:54 Clear 53 11.7 50 10 89 89 NNE 5 7 30.02 1017 10 16.0934 0 0
5:54 am 05:54 Clear 53 11.7 50 10 89 89 Calm 30.04 1017 10 16.0934 0 0
6:54 am 06:54 Sunny 53 11.7 50 10 89 89 Calm 30.05 1018 10 16.0934 0 0
7:54 am 07:54 Sunny 58 14.4 52 11.1 81 81 Calm 30.06 1018 10 16.0934 0 0
8:54 am 08:54 Sunny 62 16.7 52 11.1 70 70 Calm 30.07 1018 10 16.0934 0 0
9:54 am 09:54 Sunny 66 18.9 54 12.2 65 65 Calm 30.07 1018 10 16.0934 0 0
10:54 am 10:54 Sunny 72 22.2 57 13.9 59 59 VRB 3 6 30.07 1018 10 16.0934 0 0.0254
11:54 am 11:54 Sunny 77 25 53 11.7 43 43 SW 7 11 30.06 1018 10 16.0934 0 0
12:54 pm 12:54 Sunny 78 25.6 51 10.6 39 39 WSW 6 9 30.06 1018 10 16.0934 0 0
1:54 pm 13:54 Sunny 80 26.7 50 10 35 35 undefined N/A 30.04 1017 10 16.0934 0 0
2:54 pm 14:54 Mostly Sunny 81 27.2 50 10 34 34 WSW 9 15 30.03 1017 10 16.0934 0 0
3:54 pm 15:54 Sunny 81 27.2 52 11.1 37 37 SSW 7 11 30.01 1016 10 16.0934 0 0
4:54 pm 16:54 Sunny 82 27.8 53 11.7 37 37 SSW 10 17 30 1016 10 16.0934 0 0
5:54 pm 17:54 Sunny 81 27.2 53 11.7 38 38 SSW 9 15 29.99 1016 10 16.0934 0 0
6:54 pm 18:54 Sunny 79 26.1 55 12.8 44 44 S 9 15 29.98 1015 10 16.0934 0 0
7:54 pm 19:54 Sunny 74 23.3 57 13.9 56 56 SSE 6 9 29.98 1015 10 16.0934 0 0
8:54 pm 20:54 Clear 70 21.1 57 13.9 64 64 SSE 6 9 30 1016 10 16.0934 0 0
9:54 pm 21:54 Clear 66 18.9 57 13.9 73 73 SSE 8 13 30.01 1016 10 16.0934 0 0
10:54 pm 22:54 Clear 65 18.3 57 13.9 76 76 S 9 15 30 1016 10 16.0934 0 0
11:54 pm 23:54 Clear 63 17.2 57 13.9 81 81 SSE 9 15 30 1016 10 16.0934 0 0

Powered by AerisWeather